createdAt,value
2022-10-01T00:01:29.013Z,97655.28
2022-10-01T00:03:57.130Z,97629.13
2022-10-01T00:06:26.444Z,97580.47
2022-10-01T00:08:54.389Z,97576.97
2022-10-01T00:11:26.753Z,97494.13
2022-10-01T00:13:55.693Z,97467.94
2022-10-01T00:16:26.007Z,97418.19
2022-10-01T00:18:54.537Z,97367.75
2022-10-01T00:21:25.273Z,97379.63
2022-10-01T00:23:56.989Z,97340.13
2022-10-01T00:26:27.440Z,97296.38
2022-10-01T00:28:57.308Z,97295.06
2022-10-01T00:31:26.805Z,97294.84
2022-10-01T00:33:55.215Z,97253.09
2022-10-01T00:36:25.817Z,97215.81
2022-10-01T00:38:53.841Z,97230.50
2022-10-01T00:41:23.445Z,97219.09
2022-10-01T00:43:56.751Z,97181.72
2022-10-01T00:46:30.011Z,97154.50
2022-10-01T00:49:04.486Z,97119.72
2022-10-01T00:51:36.890Z,97096.09
2022-10-01T00:54:10.402Z,97124.19
2022-10-01T00:56:40.592Z,97178.44
2022-10-01T00:59:09.149Z,97224.03
2022-10-01T01:01:39.009Z,97226.03
2022-10-01T01:04:16.337Z,97234.25
2022-10-01T01:06:46.129Z,97269.25
2022-10-01T01:09:14.502Z,97282.50
2022-10-01T01:11:54.389Z,97308.25
2022-10-01T01:14:30.064Z,97272.66
2022-10-01T01:17:02.902Z,97268.97
2022-10-01T01:19:45.258Z,97248.16
2022-10-01T01:22:15.741Z,97243.06
2022-10-01T01:24:50.099Z,97230.97
2022-10-01T01:27:35.785Z,97207.22
2022-10-01T01:30:08.647Z,97202.88
2022-10-01T01:32:46.487Z,97193.00
2022-10-01T01:35:20.805Z,97234.63
2022-10-01T01:37:53.564Z,97221.75
2022-10-01T01:40:23.216Z,97248.50
2022-10-01T01:42:54.419Z,97299.66
2022-10-01T01:45:28.726Z,97333.25
2022-10-01T01:47:59.731Z,97307.78
2022-10-01T01:50:33.484Z,97299.66
2022-10-01T01:53:02.447Z,97287.31
2022-10-01T01:55:32.136Z,97233.50
2022-10-01T01:58:00.508Z,97278.94
2022-10-01T02:00:30.316Z,97275.44
2022-10-01T02:02:59.264Z,97300.38
2022-10-01T02:05:35.332Z,97300.03
2022-10-01T02:08:27.796Z,97206.94
2022-10-01T02:11:06.565Z,97131.66
2022-10-01T02:13:44.372Z,97108.19
2022-10-01T02:16:22.942Z,97039.72
2022-10-01T02:18:58.656Z,96980.47
2022-10-01T02:21:32.163Z,96964.31
2022-10-01T02:24:06.891Z,96914.25
2022-10-01T02:26:37.314Z,96848.66
2022-10-01T02:29:08.763Z,96862.81
2022-10-01T02:31:38.380Z,96863.50
2022-10-01T02:34:12.352Z,96921.28
2022-10-01T02:36:42.696Z,96889.50
2022-10-01T02:39:12.945Z,96916.53
2022-10-01T02:41:45.178Z,96903.84
2022-10-01T02:44:20.815Z,96925.09
2022-10-01T02:46:56.247Z,96985.34
2022-10-01T02:49:28.586Z,97014.00
2022-10-01T02:52:05.445Z,97042.88
2022-10-01T02:54:39.608Z,97111.16
2022-10-01T02:57:28.446Z,97187.41
2022-10-01T02:59:59.874Z,97284.53
2022-10-01T03:02:31.808Z,97371.47
2022-10-01T03:05:01.203Z,97403.50
2022-10-01T03:07:32.109Z,97388.16
2022-10-01T03:10:00.170Z,97400.19
2022-10-01T03:12:28.321Z,97412.09
2022-10-01T03:14:56.771Z,97383.38
2022-10-01T03:17:24.913Z,97425.97
2022-10-01T03:19:54.213Z,97446.81
2022-10-01T03:22:23.717Z,97417.72
2022-10-01T03:24:52.076Z,97393.25
2022-10-01T03:27:20.243Z,97362.53
2022-10-01T03:29:48.765Z,97369.78
2022-10-01T03:32:17.797Z,97359.53
2022-10-01T03:34:46.238Z,97367.13
2022-10-01T03:37:15.573Z,97361.72
2022-10-01T03:39:43.816Z,97330.94
2022-10-01T03:42:11.786Z,97238.28
2022-10-01T03:44:39.977Z,97183.81
2022-10-01T03:47:08.275Z,97107.56
2022-10-01T03:49:36.375Z,97047.16
2022-10-01T03:52:05.403Z,97011.19
2022-10-01T03:54:35.096Z,96992.41
2022-10-01T03:57:03.497Z,96980.53
2022-10-01T03:59:31.496Z,96989.94
2022-10-01T04:01:59.724Z,97007.91
2022-10-01T04:04:29.052Z,96983.81
2022-10-01T04:06:57.041Z,96971.97
2022-10-01T04:09:25.058Z,96966.22
2022-10-01T04:11:54.406Z,96941.66
2022-10-01T04:14:22.365Z,96921.22
2022-10-01T04:16:52.656Z,96857.13
2022-10-01T04:19:21.123Z,96826.31
2022-10-01T04:21:48.945Z,96782.47
2022-10-01T04:24:16.875Z,96706.59
2022-10-01T04:26:44.787Z,96660.97
2022-10-01T04:29:14.251Z,96592.91
2022-10-01T04:31:42.324Z,96586.59
2022-10-01T04:34:10.346Z,96582.66
2022-10-01T04:36:38.275Z,96553.94
2022-10-01T04:39:06.739Z,96596.50
2022-10-01T04:41:35.016Z,96666.06
2022-10-01T04:44:03.486Z,96685.34
2022-10-01T04:46:32.935Z,96722.53
2022-10-01T04:49:01.112Z,96711.50
2022-10-01T04:51:29.701Z,96697.69
2022-10-01T04:53:57.725Z,96695.22
2022-10-01T04:56:25.887Z,96667.31
2022-10-01T04:58:53.969Z,96675.16
2022-10-01T05:01:21.955Z,96622.22
2022-10-01T05:03:51.468Z,96611.97
2022-10-01T05:06:19.650Z,96582.66
2022-10-01T05:08:48.239Z,96563.44
2022-10-01T05:11:16.154Z,96558.16
2022-10-01T05:13:44.227Z,96555.72
2022-10-01T05:16:12.277Z,96562.25
2022-10-01T05:18:40.589Z,96564.25
2022-10-01T05:21:11.855Z,96559.00
2022-10-01T05:23:39.794Z,96555.75
2022-10-01T05:26:07.768Z,96573.81
2022-10-01T05:28:37.173Z,96586.28
2022-10-01T05:31:05.685Z,96557.44
2022-10-01T05:33:34.526Z,96606.06
2022-10-01T05:36:07.473Z,96607.25
2022-10-01T05:38:37.447Z,96617.00
2022-10-01T05:41:08.013Z,96686.53
2022-10-01T05:43:36.133Z,96733.44
2022-10-01T05:46:06.446Z,96766.06
2022-10-01T05:48:38.032Z,96805.69
2022-10-01T05:51:08.319Z,96866.50
2022-10-01T05:53:39.082Z,96846.19
2022-10-01T05:56:07.740Z,96861.13
2022-10-01T05:58:36.241Z,96870.16
2022-10-01T06:01:04.388Z,96875.78
2022-10-01T06:03:33.399Z,96895.84
2022-10-01T06:06:01.849Z,96888.94
2022-10-01T06:08:29.782Z,96925.19
2022-10-01T06:11:02.720Z,96935.41
2022-10-01T06:13:32.037Z,96944.66
2022-10-01T06:16:00.076Z,96949.75
2022-10-01T06:18:28.572Z,96952.59
2022-10-01T06:20:58.824Z,96934.47
2022-10-01T06:23:26.905Z,96951.78
2022-10-01T06:25:55.323Z,97000.38
2022-10-01T06:28:24.610Z,97023.47
2022-10-01T06:30:52.547Z,97062.41
2022-10-01T06:33:20.992Z,97080.25
2022-10-01T06:35:50.914Z,97120.81
2022-10-01T06:38:21.042Z,97133.03
2022-10-01T06:40:53.728Z,97130.41
2022-10-01T06:43:21.874Z,97152.31
2022-10-01T06:45:51.808Z,97164.06
2022-10-01T06:48:21.026Z,97209.97
2022-10-01T06:50:50.826Z,97236.75
2022-10-01T06:53:18.250Z,97358.81
2022-10-01T06:55:46.777Z,97485.88
2022-10-01T06:58:16.790Z,97540.19
2022-10-01T07:00:45.354Z,97589.13
2022-10-01T07:03:16.946Z,97599.72
2022-10-01T07:05:45.253Z,97604.03
2022-10-01T07:08:13.185Z,97634.16
2022-10-01T07:10:42.761Z,97739.78
2022-10-01T07:13:14.316Z,97963.00
2022-10-01T07:15:42.425Z,98199.09
2022-10-01T07:18:11.364Z,98451.34
2022-10-01T07:20:41.064Z,98838.69
2022-10-01T07:23:11.426Z,99267.31
2022-10-01T07:25:40.551Z,99721.09
2022-10-01T07:28:16.916Z,100070.69
2022-10-01T07:30:48.469Z,100232.47
2022-10-01T07:33:19.644Z,100380.81
2022-10-01T07:35:50.087Z,100328.09
2022-10-01T07:38:18.647Z,100076.91
2022-10-01T07:40:52.052Z,100068.13
2022-10-01T07:43:20.112Z,100077.00
2022-10-01T07:45:52.831Z,100140.25
2022-10-01T07:48:20.778Z,100215.81
2022-10-01T07:50:51.122Z,100303.16
2022-10-01T07:53:19.984Z,100313.88
2022-10-01T07:55:51.200Z,100361.78
2022-10-01T07:58:24.071Z,100335.69
2022-10-01T08:00:56.327Z,100224.59
2022-10-01T08:03:24.493Z,100053.53
2022-10-01T08:05:54.704Z,100253.31
2022-10-01T08:08:23.095Z,100665.31
2022-10-01T08:10:53.010Z,101060.22
2022-10-01T08:13:25.066Z,101337.56
2022-10-01T08:15:54.664Z,101443.69
2022-10-01T08:18:23.471Z,101765.13
2022-10-01T08:20:52.874Z,101720.69
2022-10-01T08:23:22.688Z,101450.06
2022-10-01T08:25:54.148Z,101185.63
2022-10-01T08:28:22.428Z,101277.53
2022-10-01T08:30:50.381Z,101815.94
2022-10-01T08:33:18.445Z,102119.56
2022-10-01T08:35:46.480Z,102457.00
2022-10-01T08:38:16.091Z,102583.53
2022-10-01T08:40:48.917Z,102454.41
2022-10-01T08:43:32.954Z,102406.81
2022-10-01T08:46:04.237Z,102388.16
2022-10-01T08:48:45.733Z,102320.22
2022-10-01T08:51:21.354Z,101971.69
2022-10-01T08:53:54.623Z,102022.56
2022-10-01T08:56:29.221Z,102101.06
2022-10-01T08:58:59.590Z,102035.69
2022-10-01T09:01:48.566Z,102212.94
2022-10-01T09:04:17.267Z,102222.84
2022-10-01T09:06:51.503Z,101740.84
2022-10-01T09:09:33.682Z,101376.84
2022-10-01T09:12:18.964Z,101095.63
2022-10-01T09:15:02.643Z,101128.19
2022-10-01T09:17:45.440Z,101231.91
2022-10-01T09:20:22.295Z,101303.59
2022-10-01T09:23:05.410Z,101375.97
2022-10-01T09:25:38.573Z,101519.44
2022-10-01T09:28:15.959Z,101613.72
2022-10-01T09:30:50.135Z,101820.78
2022-10-01T09:33:20.981Z,101838.72
2022-10-01T09:35:52.841Z,101993.78
2022-10-01T09:38:27.242Z,102188.78
2022-10-01T09:40:56.887Z,102568.69
2022-10-01T09:43:29.669Z,103105.59
2022-10-01T09:45:58.129Z,103606.91
2022-10-01T09:48:34.093Z,104246.63
2022-10-01T09:51:11.853Z,104567.38
2022-10-01T09:53:45.189Z,104744.19
2022-10-01T09:56:25.264Z,105274.88
2022-10-01T09:59:13.862Z,105115.91
2022-10-01T10:01:45.804Z,104889.22
2022-10-01T10:04:20.259Z,104486.63
2022-10-01T10:06:49.083Z,104463.78
2022-10-01T10:09:19.754Z,104783.22
2022-10-01T10:11:47.767Z,104965.84
2022-10-01T10:14:23.543Z,104547.00
2022-10-01T10:16:52.010Z,103999.03
2022-10-01T10:19:24.920Z,103149.75
2022-10-01T10:21:57.497Z,102416.84
2022-10-01T10:24:28.404Z,101872.97
2022-10-01T10:26:59.339Z,101478.28
2022-10-01T10:29:33.255Z,101082.97
2022-10-01T10:32:05.354Z,100762.75
2022-10-01T10:34:38.667Z,100490.19
2022-10-01T10:37:14.919Z,100277.91
2022-10-01T10:39:50.310Z,100148.09
2022-10-01T10:42:25.039Z,100106.66
2022-10-01T10:45:00.354Z,100240.88
2022-10-01T10:47:34.675Z,100847.22
2022-10-01T10:50:20.580Z,101831.72
2022-10-01T10:52:48.522Z,102448.50
2022-10-01T10:55:25.388Z,102374.13
2022-10-01T10:57:57.586Z,102624.94
2022-10-01T11:00:30.209Z,103070.28
2022-10-01T11:03:01.047Z,103715.25
2022-10-01T11:05:34.040Z,104388.06
2022-10-01T11:08:05.378Z,104753.44
2022-10-01T11:10:44.534Z,104865.03
2022-10-01T11:13:33.773Z,105322.31
2022-10-01T11:16:26.012Z,105885.38
2022-10-01T11:19:23.674Z,105688.31
2022-10-01T11:22:17.019Z,105513.72
2022-10-01T11:25:14.807Z,105227.09
2022-10-01T11:27:53.325Z,104638.56
2022-10-01T11:30:26.035Z,105235.78
2022-10-01T11:33:07.503Z,104439.59
2022-10-01T11:35:55.456Z,103893.34
2022-10-01T11:38:40.036Z,103130.84
2022-10-01T11:41:19.875Z,102862.63
2022-10-01T11:43:53.555Z,102670.50
2022-10-01T11:46:34.493Z,101959.81
2022-10-01T11:49:21.354Z,101860.94
2022-10-01T11:51:52.697Z,101519.94
2022-10-01T11:54:27.378Z,101412.59
2022-10-01T11:57:17.242Z,101319.44
2022-10-01T11:59:51.349Z,101323.75
2022-10-01T12:02:25.431Z,101415.16
2022-10-01T12:04:59.459Z,101712.38
2022-10-01T12:07:33.871Z,101722.16
2022-10-01T12:10:07.989Z,101620.84
2022-10-01T12:12:47.702Z,101424.34
2022-10-01T12:15:21.930Z,101384.69
2022-10-01T12:17:55.617Z,101559.69
2022-10-01T12:20:31.990Z,101919.84
2022-10-01T12:23:03.767Z,101952.34
2022-10-01T12:25:44.619Z,101901.25
2022-10-01T12:28:17.868Z,101809.72
2022-10-01T12:30:53.884Z,101808.88
2022-10-01T12:33:44.159Z,101757.59
2022-10-01T12:36:25.250Z,101836.16
2022-10-01T12:39:12.524Z,101780.47
2022-10-01T12:41:53.929Z,101539.00
2022-10-01T12:44:38.576Z,101325.47
2022-10-01T12:47:20.538Z,101076.22
2022-10-01T12:49:56.631Z,101113.88
2022-10-01T12:52:38.629Z,101682.38
2022-10-01T12:55:50.336Z,102042.28
2022-10-01T12:58:34.073Z,102009.19
2022-10-01T13:01:09.208Z,101915.81
2022-10-01T13:04:05.050Z,101955.63
2022-10-01T13:06:41.604Z,102143.25
2022-10-01T13:09:32.958Z,102176.81
2022-10-01T13:12:15.241Z,102221.19
2022-10-01T13:14:44.913Z,101980.75
2022-10-01T13:17:19.848Z,101730.19
2022-10-01T13:19:56.162Z,101682.22
2022-10-01T13:22:35.387Z,101643.19
2022-10-01T13:25:21.016Z,101756.81
2022-10-01T13:27:57.863Z,102075.81
2022-10-01T13:30:28.565Z,102378.78
2022-10-01T13:33:00.977Z,102647.38
2022-10-01T13:35:35.498Z,102864.00
2022-10-01T13:38:15.807Z,103023.41
2022-10-01T13:40:46.163Z,103376.22
2022-10-01T13:43:19.166Z,103420.66
2022-10-01T13:45:51.563Z,103273.25
2022-10-01T13:48:23.623Z,103426.56
2022-10-01T13:50:58.314Z,103367.84
2022-10-01T13:53:29.753Z,103581.13
2022-10-01T13:55:59.517Z,104133.03
2022-10-01T13:58:37.010Z,104307.00
2022-10-01T14:01:12.481Z,103961.66
2022-10-01T14:03:57.323Z,103475.19
2022-10-01T14:06:32.519Z,103419.28
2022-10-01T14:09:11.171Z,103234.44
2022-10-01T14:12:03.317Z,103257.50
2022-10-01T14:14:54.209Z,103282.41
2022-10-01T14:17:32.243Z,103473.94
2022-10-01T14:20:02.199Z,103928.84
2022-10-01T14:22:45.192Z,104088.66
2022-10-01T14:25:34.729Z,103963.91
2022-10-01T14:28:19.187Z,103756.69
2022-10-01T14:30:56.332Z,103516.63
2022-10-01T14:33:55.679Z,103456.91
2022-10-01T14:36:31.938Z,103068.69
2022-10-01T14:39:15.403Z,102854.66
2022-10-01T14:41:44.484Z,102388.63
2022-10-01T14:44:25.950Z,102286.56
2022-10-01T14:46:55.523Z,102269.44
2022-10-01T14:49:27.150Z,102083.31
2022-10-01T14:52:00.821Z,101600.13
2022-10-01T14:54:31.437Z,101374.28
2022-10-01T14:56:59.926Z,101068.59
2022-10-01T14:59:34.680Z,100893.34
2022-10-01T15:02:05.027Z,100769.66
2022-10-01T15:04:33.313Z,100521.25
2022-10-01T15:07:06.174Z,100382.56
2022-10-01T15:09:35.174Z,100290.97
2022-10-01T15:12:06.324Z,100155.72
2022-10-01T15:14:38.066Z,100029.19
2022-10-01T15:17:08.075Z,100110.03
2022-10-01T15:19:44.728Z,99995.75
2022-10-01T15:22:13.304Z,99849.34
2022-10-01T15:24:57.057Z,99823.91
2022-10-01T15:27:26.126Z,99764.09
2022-10-01T15:29:58.776Z,99724.13
2022-10-01T15:32:31.018Z,99676.06
2022-10-01T15:35:02.438Z,99620.25
2022-10-01T15:37:34.733Z,99599.38
2022-10-01T15:40:05.424Z,99563.72
2022-10-01T15:42:35.480Z,99473.19
2022-10-01T15:45:25.258Z,99479.22
2022-10-01T15:47:57.216Z,99432.41
2022-10-01T15:50:28.177Z,99373.19
2022-10-01T15:53:03.481Z,99281.88
2022-10-01T15:55:35.577Z,99267.88
2022-10-01T15:58:15.154Z,99219.41
2022-10-01T16:01:00.246Z,99174.75
2022-10-01T16:03:31.801Z,99124.84
2022-10-01T16:06:03.104Z,99059.38
2022-10-01T16:08:35.587Z,99019.34
2022-10-01T16:11:17.168Z,98952.91
2022-10-01T16:13:46.904Z,98889.41
2022-10-01T16:16:30.805Z,98823.56
2022-10-01T16:19:01.266Z,98731.22
2022-10-01T16:21:29.428Z,98686.56
2022-10-01T16:23:57.795Z,98626.94
2022-10-01T16:26:38.480Z,98569.47
2022-10-01T16:29:24.512Z,98500.44
2022-10-01T16:31:54.585Z,98508.59
2022-10-01T16:34:22.856Z,98483.47
2022-10-01T16:36:51.193Z,98461.00
2022-10-01T16:39:19.690Z,98432.56
2022-10-01T16:42:01.696Z,98381.66
2022-10-01T16:44:40.738Z,98364.34
2022-10-01T16:47:11.440Z,98338.44
2022-10-01T16:49:39.406Z,98302.53
2022-10-01T16:52:07.316Z,98274.63
2022-10-01T16:54:35.593Z,98258.84
2022-10-01T16:57:03.607Z,98244.38
2022-10-01T16:59:33.823Z,98215.13
2022-10-01T17:02:02.262Z,98220.28
2022-10-01T17:04:34.249Z,98157.66
2022-10-01T17:07:02.809Z,98195.03
2022-10-01T17:09:30.680Z,98154.34
2022-10-01T17:11:59.204Z,98136.91
2022-10-01T17:14:27.853Z,98142.41
2022-10-01T17:16:55.991Z,98110.03
2022-10-01T17:19:25.063Z,98065.03
2022-10-01T17:21:55.884Z,98036.47
2022-10-01T17:24:23.800Z,97996.28
2022-10-01T17:26:52.198Z,97938.25
2022-10-01T17:29:20.237Z,97916.03
2022-10-01T17:31:52.645Z,97852.38
2022-10-01T17:34:21.322Z,97836.44
2022-10-01T17:36:49.592Z,97817.88
2022-10-01T17:39:19.114Z,97794.84
2022-10-01T17:41:47.041Z,97768.81
2022-10-01T17:44:15.185Z,97701.25
2022-10-01T17:46:43.529Z,97697.59
2022-10-01T17:49:11.700Z,97672.09
2022-10-01T17:51:39.760Z,97653.88
2022-10-01T17:54:07.989Z,97610.53
2022-10-01T17:56:38.895Z,97602.22
2022-10-01T17:59:06.845Z,97582.72
2022-10-01T18:01:38.315Z,97554.91
2022-10-01T18:04:06.236Z,97567.84
2022-10-01T18:06:34.681Z,97633.34
2022-10-01T18:09:02.983Z,97619.97
2022-10-01T18:11:30.954Z,97596.66
2022-10-01T18:14:00.971Z,97662.47
2022-10-01T18:16:29.410Z,97617.34
2022-10-01T18:19:52.343Z,97683.03
2022-10-01T18:21:46.105Z,97711.50
2022-10-01T18:24:17.383Z,97726.09
2022-10-01T18:26:46.849Z,97709.22
2022-10-01T18:29:19.966Z,97721.78
2022-10-01T18:31:52.740Z,97693.63
2022-10-01T18:34:26.396Z,97710.53
2022-10-01T18:36:59.830Z,97698.47
2022-10-01T18:39:33.719Z,97736.34
2022-10-01T18:42:05.217Z,97761.06
2022-10-01T18:44:36.384Z,97844.72
2022-10-01T18:47:17.935Z,97877.53
2022-10-01T18:50:01.236Z,97901.59
2022-10-01T18:52:43.991Z,97932.28
2022-10-01T18:55:30.457Z,97972.41
2022-10-01T18:58:15.115Z,98064.69
2022-10-01T19:00:56.318Z,98201.50
2022-10-01T19:03:45.730Z,98230.25
2022-10-01T19:06:29.668Z,98257.50
2022-10-01T19:09:15.513Z,98257.50
2022-10-01T19:11:52.392Z,98260.66
2022-10-01T19:15:00.486Z,98248.69
2022-10-01T19:17:56.156Z,98255.66
2022-10-01T19:20:37.675Z,98256.19
2022-10-01T19:23:21.381Z,98256.03
2022-10-01T19:25:52.501Z,98265.66
2022-10-01T19:28:43.538Z,98262.34
2022-10-01T19:31:17.512Z,98252.84
2022-10-01T19:33:53.072Z,98238.72
2022-10-01T19:36:30.408Z,98223.78
2022-10-01T19:39:06.126Z,98207.16
2022-10-01T19:41:40.365Z,98157.50
2022-10-01T19:44:15.340Z,98134.75
2022-10-01T19:46:45.474Z,98109.84
2022-10-01T19:49:21.488Z,98057.72
2022-10-01T19:51:52.938Z,98022.19
2022-10-01T19:54:24.762Z,97986.69
2022-10-01T19:56:56.340Z,97936.59
2022-10-01T19:59:24.331Z,97899.13
2022-10-01T20:01:55.345Z,97847.41
2022-10-01T20:04:33.081Z,97806.28
2022-10-01T20:07:05.967Z,97763.88
2022-10-01T20:09:43.179Z,97730.78
2022-10-01T20:12:22.840Z,97697.78
2022-10-01T20:15:13.601Z,97668.47
2022-10-01T20:17:57.218Z,97648.13
2022-10-01T20:20:32.901Z,97606.41
2022-10-01T20:23:21.828Z,97589.00
2022-10-01T20:25:54.993Z,97533.28
2022-10-01T20:28:28.668Z,97526.50
2022-10-01T20:31:03.460Z,97523.66
2022-10-01T20:33:43.076Z,97500.34
2022-10-01T20:36:19.841Z,97492.56
2022-10-01T20:38:54.908Z,97479.81
2022-10-01T20:41:24.735Z,97440.69
2022-10-01T20:43:57.393Z,97457.66
2022-10-01T20:46:35.133Z,97448.25
2022-10-01T20:49:06.347Z,97437.16
2022-10-01T20:51:43.183Z,97423.44
2022-10-01T20:54:16.186Z,97432.88
2022-10-01T20:56:48.759Z,97415.38
2022-10-01T20:59:20.434Z,97417.50
2022-10-01T21:02:01.110Z,97409.72
2022-10-01T21:04:33.794Z,97399.84
2022-10-01T21:07:19.559Z,97408.09
2022-10-01T21:09:51.560Z,97410.06
2022-10-01T21:12:24.650Z,97405.59
2022-10-01T21:14:55.930Z,97397.19
2022-10-01T21:17:35.820Z,97381.28
2022-10-01T21:20:35.937Z,97389.91
2022-10-01T21:23:15.119Z,97404.78
2022-10-01T21:25:56.967Z,97415.03
2022-10-01T21:28:43.555Z,97422.97
2022-10-01T21:31:26.194Z,97440.81
2022-10-01T21:34:01.277Z,97459.00
2022-10-01T21:36:35.309Z,97491.59
2022-10-01T21:39:12.552Z,97496.72
2022-10-01T21:41:53.776Z,97513.94
2022-10-01T21:44:58.852Z,97526.84
2022-10-01T21:47:39.500Z,97538.09
2022-10-01T21:50:20.947Z,97560.94
2022-10-01T21:53:07.998Z,97592.34
2022-10-01T21:56:03.655Z,97621.47
2022-10-01T21:58:49.605Z,97633.75
2022-10-01T22:01:27.009Z,97647.31
2022-10-01T22:04:04.700Z,97655.94
2022-10-01T22:06:40.927Z,97654.28
2022-10-01T22:09:17.994Z,97650.97
2022-10-01T22:11:52.931Z,97663.22
2022-10-01T22:14:23.368Z,97681.75
2022-10-01T22:16:55.282Z,97678.28
2022-10-01T22:19:29.202Z,97666.53
2022-10-01T22:22:04.030Z,97656.94
2022-10-01T22:24:39.778Z,97668.19
2022-10-01T22:27:14.856Z,97694.66
2022-10-01T22:29:50.241Z,97741.19
2022-10-01T22:32:23.325Z,97767.25
2022-10-01T22:34:58.927Z,97805.00
2022-10-01T22:37:33.066Z,97847.44
2022-10-01T22:40:14.740Z,97911.44
2022-10-01T22:42:52.400Z,97962.47
2022-10-01T22:45:27.133Z,97991.03
2022-10-01T22:48:08.034Z,97992.00
2022-10-01T22:50:52.560Z,97981.72
2022-10-01T22:53:35.758Z,97982.72
2022-10-01T22:56:03.749Z,97967.13
2022-10-01T22:58:48.943Z,97947.56
2022-10-01T23:01:26.214Z,97900.81
2022-10-01T23:04:12.071Z,97868.97
2022-10-01T23:06:45.864Z,97834.19
2022-10-01T23:09:19.002Z,97800.38
2022-10-01T23:11:56.744Z,97753.31
2022-10-01T23:14:40.271Z,97736.25
2022-10-01T23:17:15.227Z,97720.88
2022-10-01T23:19:52.903Z,97730.78
2022-10-01T23:22:37.205Z,97706.97
2022-10-01T23:25:17.444Z,97687.59
2022-10-01T23:28:00.612Z,97669.19
2022-10-01T23:30:40.425Z,97667.38
2022-10-01T23:33:27.982Z,97655.09
2022-10-01T23:36:06.953Z,97666.22
2022-10-01T23:39:02.925Z,97682.44
2022-10-01T23:41:38.663Z,97711.78
2022-10-01T23:44:15.493Z,97734.44
2022-10-01T23:46:51.637Z,97736.09
2022-10-01T23:49:24.114Z,97724.19
2022-10-01T23:51:59.724Z,97692.06
2022-10-01T23:54:31.439Z,97674.81
2022-10-01T23:57:09.154Z,97660.91
2022-10-01T23:59:41.600Z,97645.38
